sensor_id;sensor_type;location;lat;lon;timestamp;P1;durP1;ratioP1;P2;durP2;ratioP2
9541;SDS011;4809;48.224;8.572;2022-07-23T00:01:28;11.82;;;10.73;;
9541;SDS011;4809;48.224;8.572;2022-07-23T00:03:54;11.43;;;10.35;;
9541;SDS011;4809;48.224;8.572;2022-07-23T00:06:20;12.52;;;11.25;;
9541;SDS011;4809;48.224;8.572;2022-07-23T00:08:47;12.07;;;10.85;;
9541;SDS011;4809;48.224;8.572;2022-07-23T00:11:12;12.55;;;11.35;;
9541;SDS011;4809;48.224;8.572;2022-07-23T00:13:38;12.63;;;11.43;;
9541;SDS011;4809;48.224;8.572;2022-07-23T00:16:04;11.77;;;10.57;;
9541;SDS011;4809;48.224;8.572;2022-07-23T00:18:30;11.68;;;10.60;;
9541;SDS011;4809;48.224;8.572;2022-07-23T00:20:56;12.18;;;10.98;;
9541;SDS011;4809;48.224;8.572;2022-07-23T00:23:21;11.77;;;10.68;;
9541;SDS011;4809;48.224;8.572;2022-07-23T00:25:47;12.10;;;11.02;;
9541;SDS011;4809;48.224;8.572;2022-07-23T00:28:13;12.85;;;10.93;;
9541;SDS011;4809;48.224;8.572;2022-07-23T00:30:38;11.82;;;10.73;;
9541;SDS011;4809;48.224;8.572;2022-07-23T00:33:06;11.68;;;10.48;;
9541;SDS011;4809;48.224;8.572;2022-07-23T00:35:33;10.68;;;9.68;;
9541;SDS011;4809;48.224;8.572;2022-07-23T00:38:01;10.50;;;9.45;;
9541;SDS011;4809;48.224;8.572;2022-07-23T00:40:27;10.48;;;9.48;;
9541;SDS011;4809;48.224;8.572;2022-07-23T00:42:54;10.20;;;9.18;;
9541;SDS011;4809;48.224;8.572;2022-07-23T00:45:20;10.45;;;9.50;;
9541;SDS011;4809;48.224;8.572;2022-07-23T00:47:46;10.02;;;9.02;;
9541;SDS011;4809;48.224;8.572;2022-07-23T00:50:12;11.65;;;10.60;;
9541;SDS011;4809;48.224;8.572;2022-07-23T00:52:39;10.95;;;9.85;;
9541;SDS011;4809;48.224;8.572;2022-07-23T00:55:06;10.65;;;9.65;;
9541;SDS011;4809;48.224;8.572;2022-07-23T00:57:34;11.63;;;10.48;;
9541;SDS011;4809;48.224;8.572;2022-07-23T01:00:01;11.18;;;9.98;;
9541;SDS011;4809;48.224;8.572;2022-07-23T01:02:27;11.95;;;10.45;;
9541;SDS011;4809;48.224;8.572;2022-07-23T01:04:53;11.73;;;10.63;;
9541;SDS011;4809;48.224;8.572;2022-07-23T01:07:19;10.90;;;9.80;;
9541;SDS011;4809;48.224;8.572;2022-07-23T01:09:45;10.35;;;9.30;;
9541;SDS011;4809;48.224;8.572;2022-07-23T01:12:11;10.75;;;9.75;;
9541;SDS011;4809;48.224;8.572;2022-07-23T01:14:37;13.00;;;11.80;;
9541;SDS011;4809;48.224;8.572;2022-07-23T01:17:04;11.48;;;10.35;;
9541;SDS011;4809;48.224;8.572;2022-07-23T01:19:30;10.88;;;9.88;;
9541;SDS011;4809;48.224;8.572;2022-07-23T01:21:56;10.60;;;9.63;;
9541;SDS011;4809;48.224;8.572;2022-07-23T01:24:23;9.82;;;8.93;;
9541;SDS011;4809;48.224;8.572;2022-07-23T01:26:49;10.07;;;9.13;;
9541;SDS011;4809;48.224;8.572;2022-07-23T01:29:15;10.00;;;9.00;;
9541;SDS011;4809;48.224;8.572;2022-07-23T01:31:42;10.50;;;8.80;;
9541;SDS011;4809;48.224;8.572;2022-07-23T01:34:08;9.70;;;8.80;;
9541;SDS011;4809;48.224;8.572;2022-07-23T01:36:35;10.07;;;8.90;;
9541;SDS011;4809;48.224;8.572;2022-07-23T01:39:02;10.02;;;9.02;;
9541;SDS011;4809;48.224;8.572;2022-07-23T01:41:29;10.00;;;9.10;;
9541;SDS011;4809;48.224;8.572;2022-07-23T01:43:55;9.52;;;8.63;;
9541;SDS011;4809;48.224;8.572;2022-07-23T01:46:21;10.02;;;9.02;;
9541;SDS011;4809;48.224;8.572;2022-07-23T01:48:46;10.80;;;8.60;;
9541;SDS011;4809;48.224;8.572;2022-07-23T01:51:12;9.82;;;8.82;;
9541;SDS011;4809;48.224;8.572;2022-07-23T01:53:38;9.52;;;8.52;;
9541;SDS011;4809;48.224;8.572;2022-07-23T01:56:04;10.20;;;8.60;;
9541;SDS011;4809;48.224;8.572;2022-07-23T01:58:30;9.18;;;8.27;;
9541;SDS011;4809;48.224;8.572;2022-07-23T02:00:56;8.82;;;7.90;;
9541;SDS011;4809;48.224;8.572;2022-07-23T02:03:22;9.13;;;8.23;;
9541;SDS011;4809;48.224;8.572;2022-07-23T02:05:48;9.23;;;8.32;;
9541;SDS011;4809;48.224;8.572;2022-07-23T02:08:14;9.60;;;8.70;;
9541;SDS011;4809;48.224;8.572;2022-07-23T02:10:40;9.60;;;8.60;;
9541;SDS011;4809;48.224;8.572;2022-07-23T02:13:06;10.07;;;9.07;;
9541;SDS011;4809;48.224;8.572;2022-07-23T02:15:32;9.93;;;8.93;;
9541;SDS011;4809;48.224;8.572;2022-07-23T02:17:58;9.32;;;8.43;;
9541;SDS011;4809;48.224;8.572;2022-07-23T02:20:23;8.98;;;8.07;;
9541;SDS011;4809;48.224;8.572;2022-07-23T02:22:49;8.70;;;7.85;;
9541;SDS011;4809;48.224;8.572;2022-07-23T02:25:15;9.13;;;8.23;;
9541;SDS011;4809;48.224;8.572;2022-07-23T02:27:40;9.60;;;8.70;;
9541;SDS011;4809;48.224;8.572;2022-07-23T02:30:06;9.98;;;8.98;;
9541;SDS011;4809;48.224;8.572;2022-07-23T02:32:32;9.65;;;8.75;;
9541;SDS011;4809;48.224;8.572;2022-07-23T02:34:58;10.43;;;8.63;;
9541;SDS011;4809;48.224;8.572;2022-07-23T02:37:24;9.73;;;8.73;;
9541;SDS011;4809;48.224;8.572;2022-07-23T02:39:49;10.15;;;9.05;;
9541;SDS011;4809;48.224;8.572;2022-07-23T02:42:15;10.00;;;9.00;;
9541;SDS011;4809;48.224;8.572;2022-07-23T02:44:41;9.65;;;8.75;;
9541;SDS011;4809;48.224;8.572;2022-07-23T02:47:07;10.48;;;9.38;;
9541;SDS011;4809;48.224;8.572;2022-07-23T02:49:32;9.25;;;8.35;;
9541;SDS011;4809;48.224;8.572;2022-07-23T02:51:58;9.48;;;8.48;;
9541;SDS011;4809;48.224;8.572;2022-07-23T02:54:24;9.05;;;8.15;;
9541;SDS011;4809;48.224;8.572;2022-07-23T02:56:49;9.75;;;8.85;;
9541;SDS011;4809;48.224;8.572;2022-07-23T02:59:16;10.30;;;9.30;;
9541;SDS011;4809;48.224;8.572;2022-07-23T03:01:42;10.13;;;9.02;;
9541;SDS011;4809;48.224;8.572;2022-07-23T03:04:08;10.35;;;9.35;;
9541;SDS011;4809;48.224;8.572;2022-07-23T03:06:34;10.27;;;9.27;;
9541;SDS011;4809;48.224;8.572;2022-07-23T03:08:59;10.25;;;9.25;;
9541;SDS011;4809;48.224;8.572;2022-07-23T03:11:25;9.88;;;8.88;;
9541;SDS011;4809;48.224;8.572;2022-07-23T03:13:51;9.90;;;8.90;;
9541;SDS011;4809;48.224;8.572;2022-07-23T03:16:16;10.30;;;9.40;;
9541;SDS011;4809;48.224;8.572;2022-07-23T03:18:42;10.65;;;9.57;;
9541;SDS011;4809;48.224;8.572;2022-07-23T03:21:08;11.00;;;9.80;;
9541;SDS011;4809;48.224;8.572;2022-07-23T03:23:33;10.45;;;9.45;;
9541;SDS011;4809;48.224;8.572;2022-07-23T03:25:59;10.20;;;9.20;;
9541;SDS011;4809;48.224;8.572;2022-07-23T03:28:25;10.45;;;9.38;;
9541;SDS011;4809;48.224;8.572;2022-07-23T03:30:51;9.85;;;8.85;;
9541;SDS011;4809;48.224;8.572;2022-07-23T03:33:17;10.05;;;9.07;;
9541;SDS011;4809;48.224;8.572;2022-07-23T03:35:44;10.68;;;9.43;;
9541;SDS011;4809;48.224;8.572;2022-07-23T03:38:11;10.60;;;9.60;;
9541;SDS011;4809;48.224;8.572;2022-07-23T03:40:37;11.18;;;10.05;;
9541;SDS011;4809;48.224;8.572;2022-07-23T03:43:03;10.63;;;9.60;;
9541;SDS011;4809;48.224;8.572;2022-07-23T03:45:28;10.43;;;9.43;;
9541;SDS011;4809;48.224;8.572;2022-07-23T03:47:54;10.93;;;9.80;;
9541;SDS011;4809;48.224;8.572;2022-07-23T03:50:20;10.68;;;9.68;;
9541;SDS011;4809;48.224;8.572;2022-07-23T03:52:46;11.45;;;10.23;;
9541;SDS011;4809;48.224;8.572;2022-07-23T03:55:11;11.43;;;10.23;;
9541;SDS011;4809;48.224;8.572;2022-07-23T03:57:37;13.05;;;9.70;;
9541;SDS011;4809;48.224;8.572;2022-07-23T04:00:04;11.15;;;10.02;;
9541;SDS011;4809;48.224;8.572;2022-07-23T04:02:32;11.43;;;9.52;;
9541;SDS011;4809;48.224;8.572;2022-07-23T04:04:57;11.02;;;10.02;;
9541;SDS011;4809;48.224;8.572;2022-07-23T04:07:24;12.35;;;10.10;;
9541;SDS011;4809;48.224;8.572;2022-07-23T04:09:50;11.55;;;10.52;;
9541;SDS011;4809;48.224;8.572;2022-07-23T04:12:15;10.93;;;9.82;;
9541;SDS011;4809;48.224;8.572;2022-07-23T04:14:41;10.45;;;9.45;;
9541;SDS011;4809;48.224;8.572;2022-07-23T04:17:07;10.90;;;9.90;;
9541;SDS011;4809;48.224;8.572;2022-07-23T04:19:33;10.52;;;9.48;;
9541;SDS011;4809;48.224;8.572;2022-07-23T04:22:00;10.50;;;9.50;;
9541;SDS011;4809;48.224;8.572;2022-07-23T04:24:26;10.98;;;9.88;;
9541;SDS011;4809;48.224;8.572;2022-07-23T04:26:51;11.00;;;10.00;;
9541;SDS011;4809;48.224;8.572;2022-07-23T04:29:18;11.50;;;10.10;;
9541;SDS011;4809;48.224;8.572;2022-07-23T04:31:43;10.98;;;9.88;;
9541;SDS011;4809;48.224;8.572;2022-07-23T04:34:09;11.30;;;10.10;;
9541;SDS011;4809;48.224;8.572;2022-07-23T04:36:35;11.70;;;10.30;;
9541;SDS011;4809;48.224;8.572;2022-07-23T04:39:00;10.82;;;9.73;;
9541;SDS011;4809;48.224;8.572;2022-07-23T04:41:26;10.93;;;9.70;;
9541;SDS011;4809;48.224;8.572;2022-07-23T04:43:52;10.93;;;9.82;;
9541;SDS011;4809;48.224;8.572;2022-07-23T04:46:17;10.27;;;9.35;;
9541;SDS011;4809;48.224;8.572;2022-07-23T04:48:43;11.15;;;10.05;;
9541;SDS011;4809;48.224;8.572;2022-07-23T04:51:09;11.38;;;10.27;;
9541;SDS011;4809;48.224;8.572;2022-07-23T04:53:36;10.85;;;9.75;;
9541;SDS011;4809;48.224;8.572;2022-07-23T04:56:03;10.65;;;9.55;;
9541;SDS011;4809;48.224;8.572;2022-07-23T04:58:29;10.13;;;9.23;;
9541;SDS011;4809;48.224;8.572;2022-07-23T05:00:54;10.57;;;9.48;;
9541;SDS011;4809;48.224;8.572;2022-07-23T05:03:22;11.57;;;10.38;;
9541;SDS011;4809;48.224;8.572;2022-07-23T05:05:48;11.55;;;9.98;;
9541;SDS011;4809;48.224;8.572;2022-07-23T05:08:14;11.18;;;9.98;;
9541;SDS011;4809;48.224;8.572;2022-07-23T05:10:40;10.25;;;9.25;;
9541;SDS011;4809;48.224;8.572;2022-07-23T05:13:06;10.82;;;9.45;;
9541;SDS011;4809;48.224;8.572;2022-07-23T05:15:31;11.15;;;9.60;;
9541;SDS011;4809;48.224;8.572;2022-07-23T05:17:57;11.73;;;9.52;;
9541;SDS011;4809;48.224;8.572;2022-07-23T05:20:23;9.88;;;8.88;;
9541;SDS011;4809;48.224;8.572;2022-07-23T05:22:52;9.98;;;8.98;;
9541;SDS011;4809;48.224;8.572;2022-07-23T05:26:08;11.30;;;9.38;;
9541;SDS011;4809;48.224;8.572;2022-07-23T05:29:45;10.32;;;9.30;;
9541;SDS011;4809;48.224;8.572;2022-07-23T05:36:50;10.13;;;9.13;;
9541;SDS011;4809;48.224;8.572;2022-07-23T05:39:16;9.75;;;8.48;;
9541;SDS011;4809;48.224;8.572;2022-07-23T05:41:41;10.13;;;9.23;;
9541;SDS011;4809;48.224;8.572;2022-07-23T05:44:07;11.25;;;10.02;;
9541;SDS011;4809;48.224;8.572;2022-07-23T05:46:33;9.82;;;8.80;;
9541;SDS011;4809;48.224;8.572;2022-07-23T05:48:58;9.82;;;8.82;;
9541;SDS011;4809;48.224;8.572;2022-07-23T05:51:24;9.88;;;8.88;;
9541;SDS011;4809;48.224;8.572;2022-07-23T05:53:50;10.20;;;9.20;;
9541;SDS011;4809;48.224;8.572;2022-07-23T05:56:18;9.93;;;8.93;;
9541;SDS011;4809;48.224;8.572;2022-07-23T05:58:44;9.63;;;8.73;;
9541;SDS011;4809;48.224;8.572;2022-07-23T06:01:10;9.50;;;8.27;;
9541;SDS011;4809;48.224;8.572;2022-07-23T06:03:36;9.98;;;8.45;;
9541;SDS011;4809;48.224;8.572;2022-07-23T06:06:03;9.52;;;8.63;;
9541;SDS011;4809;48.224;8.572;2022-07-23T06:08:29;9.55;;;8.65;;
9541;SDS011;4809;48.224;8.572;2022-07-23T06:10:54;9.85;;;8.85;;
9541;SDS011;4809;48.224;8.572;2022-07-23T06:13:20;9.18;;;8.30;;
9541;SDS011;4809;48.224;8.572;2022-07-23T06:15:46;9.25;;;8.35;;
9541;SDS011;4809;48.224;8.572;2022-07-23T06:18:11;9.70;;;8.45;;
9541;SDS011;4809;48.224;8.572;2022-07-23T06:20:37;9.63;;;8.73;;
9541;SDS011;4809;48.224;8.572;2022-07-23T06:23:03;9.07;;;8.18;;
9541;SDS011;4809;48.224;8.572;2022-07-23T06:25:29;9.05;;;8.23;;
9541;SDS011;4809;48.224;8.572;2022-07-23T06:27:55;9.45;;;8.55;;
9541;SDS011;4809;48.224;8.572;2022-07-23T06:30:21;10.10;;;8.73;;
9541;SDS011;4809;48.224;8.572;2022-07-23T06:32:47;9.85;;;8.85;;
9541;SDS011;4809;48.224;8.572;2022-07-23T06:35:13;9.63;;;8.38;;
9541;SDS011;4809;48.224;8.572;2022-07-23T06:37:39;9.63;;;8.73;;
9541;SDS011;4809;48.224;8.572;2022-07-23T06:40:05;9.55;;;8.57;;
9541;SDS011;4809;48.224;8.572;2022-07-23T06:42:31;11.07;;;8.95;;
9541;SDS011;4809;48.224;8.572;2022-07-23T06:44:57;10.35;;;8.90;;
9541;SDS011;4809;48.224;8.572;2022-07-23T06:47:23;9.32;;;8.30;;
9541;SDS011;4809;48.224;8.572;2022-07-23T06:49:48;9.48;;;8.55;;
9541;SDS011;4809;48.224;8.572;2022-07-23T06:52:15;9.57;;;8.10;;
9541;SDS011;4809;48.224;8.572;2022-07-23T06:54:41;9.23;;;8.32;;
9541;SDS011;4809;48.224;8.572;2022-07-23T06:57:07;9.57;;;8.57;;
9541;SDS011;4809;48.224;8.572;2022-07-23T06:59:32;9.73;;;8.32;;
9541;SDS011;4809;48.224;8.572;2022-07-23T07:02:01;9.73;;;8.73;;
9541;SDS011;4809;48.224;8.572;2022-07-23T07:04:26;9.10;;;8.20;;
9541;SDS011;4809;48.224;8.572;2022-07-23T07:06:52;8.80;;;7.90;;
9541;SDS011;4809;48.224;8.572;2022-07-23T07:09:18;8.88;;;8.07;;
9541;SDS011;4809;48.224;8.572;2022-07-23T07:11:43;8.98;;;8.07;;
9541;SDS011;4809;48.224;8.572;2022-07-23T07:14:09;8.95;;;8.15;;
9541;SDS011;4809;48.224;8.572;2022-07-23T07:16:35;8.75;;;7.85;;
9541;SDS011;4809;48.224;8.572;2022-07-23T07:19:00;8.60;;;7.80;;
9541;SDS011;4809;48.224;8.572;2022-07-23T07:21:26;8.98;;;8.13;;
9541;SDS011;4809;48.224;8.572;2022-07-23T07:23:52;8.63;;;7.78;;
9541;SDS011;4809;48.224;8.572;2022-07-23T07:26:17;9.15;;;8.25;;
9541;SDS011;4809;48.224;8.572;2022-07-23T07:28:43;9.30;;;8.40;;
9541;SDS011;4809;48.224;8.572;2022-07-23T07:31:09;8.27;;;7.57;;
9541;SDS011;4809;48.224;8.572;2022-07-23T07:33:34;8.70;;;7.68;;
9541;SDS011;4809;48.224;8.572;2022-07-23T07:36:00;8.45;;;7.65;;
9541;SDS011;4809;48.224;8.572;2022-07-23T07:38:26;8.07;;;7.38;;
9541;SDS011;4809;48.224;8.572;2022-07-23T07:40:51;8.68;;;7.85;;
9541;SDS011;4809;48.224;8.572;2022-07-23T07:43:17;8.88;;;7.90;;
9541;SDS011;4809;48.224;8.572;2022-07-23T07:45:43;8.77;;;7.97;;
9541;SDS011;4809;48.224;8.572;2022-07-23T07:48:08;8.65;;;7.78;;
9541;SDS011;4809;48.224;8.572;2022-07-23T07:50:34;8.48;;;7.70;;
9541;SDS011;4809;48.224;8.572;2022-07-23T07:53:00;7.85;;;7.15;;
9541;SDS011;4809;48.224;8.572;2022-07-23T07:55:25;8.70;;;7.80;;
9541;SDS011;4809;48.224;8.572;2022-07-23T07:57:52;7.90;;;7.03;;
9541;SDS011;4809;48.224;8.572;2022-07-23T08:00:17;7.88;;;7.18;;
9541;SDS011;4809;48.224;8.572;2022-07-23T08:02:44;8.27;;;7.47;;
9541;SDS011;4809;48.224;8.572;2022-07-23T08:05:14;8.38;;;7.57;;
9541;SDS011;4809;48.224;8.572;2022-07-23T08:07:44;8.40;;;7.70;;
9541;SDS011;4809;48.224;8.572;2022-07-23T08:10:11;8.80;;;7.90;;
9541;SDS011;4809;48.224;8.572;2022-07-23T08:12:42;9.00;;;8.20;;
9541;SDS011;4809;48.224;8.572;2022-07-23T08:15:13;9.70;;;8.18;;
9541;SDS011;4809;48.224;8.572;2022-07-23T08:17:40;10.50;;;9.50;;
9541;SDS011;4809;48.224;8.572;2022-07-23T08:20:07;8.88;;;8.02;;
9541;SDS011;4809;48.224;8.572;2022-07-23T08:22:43;8.82;;;8.02;;
9541;SDS011;4809;48.224;8.572;2022-07-23T08:25:15;8.77;;;7.95;;
9541;SDS011;4809;48.224;8.572;2022-07-23T08:27:45;8.75;;;7.90;;
9541;SDS011;4809;48.224;8.572;2022-07-23T08:30:11;9.45;;;8.52;;
9541;SDS011;4809;48.224;8.572;2022-07-23T08:35:36;8.57;;;7.78;;
9541;SDS011;4809;48.224;8.572;2022-07-23T08:38:03;9.05;;;8.20;;
9541;SDS011;4809;48.224;8.572;2022-07-23T08:40:32;9.15;;;8.35;;
9541;SDS011;4809;48.224;8.572;2022-07-23T08:42:59;9.20;;;8.30;;
9541;SDS011;4809;48.224;8.572;2022-07-23T08:45:26;10.00;;;8.93;;
9541;SDS011;4809;48.224;8.572;2022-07-23T08:47:54;9.68;;;8.68;;
9541;SDS011;4809;48.224;8.572;2022-07-23T08:50:22;9.23;;;8.40;;
9541;SDS011;4809;48.224;8.572;2022-07-23T08:52:49;9.75;;;8.77;;
9541;SDS011;4809;48.224;8.572;2022-07-23T08:55:17;10.57;;;9.18;;
9541;SDS011;4809;48.224;8.572;2022-07-23T08:57:43;10.48;;;9.48;;
9541;SDS011;4809;48.224;8.572;2022-07-23T09:00:10;10.38;;;9.38;;
9541;SDS011;4809;48.224;8.572;2022-07-23T09:02:39;10.27;;;9.13;;
9541;SDS011;4809;48.224;8.572;2022-07-23T09:05:06;10.77;;;9.68;;
9541;SDS011;4809;48.224;8.572;2022-07-23T09:07:33;10.27;;;9.23;;
9541;SDS011;4809;48.224;8.572;2022-07-23T09:10:06;10.52;;;9.43;;
9541;SDS011;4809;48.224;8.572;2022-07-23T09:12:33;10.13;;;9.13;;
9541;SDS011;4809;48.224;8.572;2022-07-23T09:15:03;10.13;;;9.23;;
9541;SDS011;4809;48.224;8.572;2022-07-23T09:17:36;10.38;;;9.38;;
9541;SDS011;4809;48.224;8.572;2022-07-23T09:20:13;9.60;;;8.70;;
9541;SDS011;4809;48.224;8.572;2022-07-23T09:22:46;10.25;;;9.35;;
9541;SDS011;4809;48.224;8.572;2022-07-23T09:25:17;14.77;;;13.35;;
9541;SDS011;4809;48.224;8.572;2022-07-23T09:27:46;23.70;;;21.65;;
9541;SDS011;4809;48.224;8.572;2022-07-23T09:30:15;9.60;;;8.68;;
9541;SDS011;4809;48.224;8.572;2022-07-23T09:32:41;9.52;;;8.73;;
9541;SDS011;4809;48.224;8.572;2022-07-23T09:35:07;9.68;;;8.75;;
9541;SDS011;4809;48.224;8.572;2022-07-23T09:37:33;9.88;;;8.80;;
9541;SDS011;4809;48.224;8.572;2022-07-23T09:40:03;9.73;;;8.90;;
9541;SDS011;4809;48.224;8.572;2022-07-23T09:42:31;9.80;;;8.88;;
9541;SDS011;4809;48.224;8.572;2022-07-23T09:44:57;9.48;;;8.68;;
9541;SDS011;4809;48.224;8.572;2022-07-23T09:47:24;10.20;;;9.20;;
9541;SDS011;4809;48.224;8.572;2022-07-23T09:50:02;9.40;;;8.60;;
9541;SDS011;4809;48.224;8.572;2022-07-23T09:52:43;9.45;;;8.65;;
9541;SDS011;4809;48.224;8.572;2022-07-23T09:55:12;10.43;;;9.43;;
9541;SDS011;4809;48.224;8.572;2022-07-23T09:57:38;9.48;;;8.68;;
9541;SDS011;4809;48.224;8.572;2022-07-23T10:00:07;9.13;;;8.32;;
9541;SDS011;4809;48.224;8.572;2022-07-23T10:02:36;9.10;;;8.30;;
9541;SDS011;4809;48.224;8.572;2022-07-23T10:05:03;7.97;;;7.28;;
9541;SDS011;4809;48.224;8.572;2022-07-23T10:07:34;8.80;;;8.00;;
9541;SDS011;4809;48.224;8.572;2022-07-23T10:10:03;8.75;;;7.95;;
9541;SDS011;4809;48.224;8.572;2022-07-23T10:12:30;9.43;;;7.65;;
9541;SDS011;4809;48.224;8.572;2022-07-23T10:15:15;7.50;;;6.80;;
9541;SDS011;4809;48.224;8.572;2022-07-23T10:17:41;7.30;;;6.63;;
9541;SDS011;4809;48.224;8.572;2022-07-23T10:20:07;7.35;;;6.40;;
9541;SDS011;4809;48.224;8.572;2022-07-23T10:22:40;7.15;;;6.45;;
9541;SDS011;4809;48.224;8.572;2022-07-23T10:25:25;7.45;;;6.75;;
9541;SDS011;4809;48.224;8.572;2022-07-23T10:31:04;6.38;;;5.88;;
9541;SDS011;4809;48.224;8.572;2022-07-23T10:38:57;7.70;;;6.90;;
9541;SDS011;4809;48.224;8.572;2022-07-23T10:41:31;13.40;;;7.75;;
9541;SDS011;4809;48.224;8.572;2022-07-23T10:44:07;7.30;;;6.60;;
9541;SDS011;4809;48.224;8.572;2022-07-23T10:46:34;7.20;;;6.60;;
9541;SDS011;4809;48.224;8.572;2022-07-23T10:49:30;7.22;;;6.53;;
9541;SDS011;4809;48.224;8.572;2022-07-23T10:54:42;7.18;;;6.53;;
9541;SDS011;4809;48.224;8.572;2022-07-23T10:57:26;7.28;;;6.55;;
9541;SDS011;4809;48.224;8.572;2022-07-23T11:02:35;7.30;;;6.60;;
9541;SDS011;4809;48.224;8.572;2022-07-23T11:07:35;7.78;;;7.18;;
9541;SDS011;4809;48.224;8.572;2022-07-23T11:10:02;7.90;;;7.20;;
9541;SDS011;4809;48.224;8.572;2022-07-23T11:17:30;7.40;;;6.80;;
9541;SDS011;4809;48.224;8.572;2022-07-23T11:22:50;8.07;;;7.38;;
9541;SDS011;4809;48.224;8.572;2022-07-23T11:27:46;7.68;;;6.97;;
9541;SDS011;4809;48.224;8.572;2022-07-23T11:33:39;7.80;;;7.10;;
9541;SDS011;4809;48.224;8.572;2022-07-23T11:35:47;7.82;;;7.13;;
9541;SDS011;4809;48.224;8.572;2022-07-23T11:38:18;7.57;;;6.97;;
9541;SDS011;4809;48.224;8.572;2022-07-23T11:40:52;8.00;;;7.20;;
9541;SDS011;4809;48.224;8.572;2022-07-23T11:43:20;7.88;;;7.10;;
9541;SDS011;4809;48.224;8.572;2022-07-23T11:45:50;8.10;;;7.40;;
9541;SDS011;4809;48.224;8.572;2022-07-23T11:48:18;8.25;;;7.55;;
9541;SDS011;4809;48.224;8.572;2022-07-23T11:50:45;8.00;;;7.20;;
9541;SDS011;4809;48.224;8.572;2022-07-23T11:53:11;7.85;;;7.15;;
9541;SDS011;4809;48.224;8.572;2022-07-23T11:55:37;7.65;;;6.95;;
9541;SDS011;4809;48.224;8.572;2022-07-23T11:58:04;7.93;;;7.20;;
9541;SDS011;4809;48.224;8.572;2022-07-23T12:00:30;7.55;;;6.95;;
9541;SDS011;4809;48.224;8.572;2022-07-23T12:02:58;7.90;;;7.10;;
9541;SDS011;4809;48.224;8.572;2022-07-23T12:05:28;7.85;;;7.15;;
9541;SDS011;4809;48.224;8.572;2022-07-23T12:07:57;8.25;;;7.47;;
9541;SDS011;4809;48.224;8.572;2022-07-23T12:13:24;7.93;;;7.13;;
9541;SDS011;4809;48.224;8.572;2022-07-23T12:15:51;8.25;;;7.50;;
9541;SDS011;4809;48.224;8.572;2022-07-23T12:18:23;8.23;;;7.53;;
9541;SDS011;4809;48.224;8.572;2022-07-23T12:20:53;7.85;;;7.13;;
9541;SDS011;4809;48.224;8.572;2022-07-23T12:23:22;8.55;;;7.57;;
9541;SDS011;4809;48.224;8.572;2022-07-23T12:25:49;7.97;;;7.28;;
9541;SDS011;4809;48.224;8.572;2022-07-23T12:28:20;7.75;;;7.05;;
9541;SDS011;4809;48.224;8.572;2022-07-23T12:30:53;7.93;;;7.30;;
9541;SDS011;4809;48.224;8.572;2022-07-23T12:33:27;8.35;;;7.55;;
9541;SDS011;4809;48.224;8.572;2022-07-23T12:36:03;8.35;;;7.50;;
9541;SDS011;4809;48.224;8.572;2022-07-23T12:38:41;8.15;;;7.35;;
9541;SDS011;4809;48.224;8.572;2022-07-23T12:41:08;8.38;;;7.68;;
9541;SDS011;4809;48.224;8.572;2022-07-23T12:43:37;8.10;;;7.40;;
9541;SDS011;4809;48.224;8.572;2022-07-23T12:48:36;7.82;;;7.13;;
9541;SDS011;4809;48.224;8.572;2022-07-23T12:51:04;8.25;;;7.35;;
9541;SDS011;4809;48.224;8.572;2022-07-23T12:53:32;8.27;;;7.47;;
9541;SDS011;4809;48.224;8.572;2022-07-23T12:58:43;8.60;;;7.80;;
9541;SDS011;4809;48.224;8.572;2022-07-23T13:09:15;7.78;;;7.07;;
9541;SDS011;4809;48.224;8.572;2022-07-23T13:11:51;8.35;;;7.65;;
9541;SDS011;4809;48.224;8.572;2022-07-23T13:14:18;8.13;;;7.32;;
9541;SDS011;4809;48.224;8.572;2022-07-23T13:16:45;10.63;;;7.05;;
9541;SDS011;4809;48.224;8.572;2022-07-23T13:19:11;7.55;;;6.90;;
9541;SDS011;4809;48.224;8.572;2022-07-23T13:21:38;8.13;;;7.32;;
9541;SDS011;4809;48.224;8.572;2022-07-23T13:24:05;7.75;;;7.05;;
9541;SDS011;4809;48.224;8.572;2022-07-23T13:26:32;7.93;;;6.93;;
9541;SDS011;4809;48.224;8.572;2022-07-23T13:28:57;7.78;;;7.03;;
9541;SDS011;4809;48.224;8.572;2022-07-23T13:31:23;8.10;;;6.95;;
9541;SDS011;4809;48.224;8.572;2022-07-23T13:33:49;7.88;;;7.13;;
9541;SDS011;4809;48.224;8.572;2022-07-23T13:36:15;7.72;;;7.00;;
9541;SDS011;4809;48.224;8.572;2022-07-23T13:38:40;7.63;;;6.93;;
9541;SDS011;4809;48.224;8.572;2022-07-23T13:41:06;8.20;;;7.50;;
9541;SDS011;4809;48.224;8.572;2022-07-23T13:43:32;7.97;;;7.00;;
9541;SDS011;4809;48.224;8.572;2022-07-23T13:45:58;7.72;;;6.93;;
9541;SDS011;4809;48.224;8.572;2022-07-23T13:48:25;9.13;;;7.55;;
9541;SDS011;4809;48.224;8.572;2022-07-23T13:50:51;7.65;;;6.95;;
9541;SDS011;4809;48.224;8.572;2022-07-23T13:53:20;7.97;;;7.28;;
9541;SDS011;4809;48.224;8.572;2022-07-23T13:55:48;8.05;;;7.35;;
9541;SDS011;4809;48.224;8.572;2022-07-23T13:58:15;7.88;;;7.18;;
9541;SDS011;4809;48.224;8.572;2022-07-23T14:00:43;7.82;;;7.13;;
9541;SDS011;4809;48.224;8.572;2022-07-23T14:03:11;8.05;;;7.25;;
9541;SDS011;4809;48.224;8.572;2022-07-23T14:05:37;7.95;;;7.05;;
9541;SDS011;4809;48.224;8.572;2022-07-23T14:08:03;7.80;;;7.20;;
9541;SDS011;4809;48.224;8.572;2022-07-23T14:10:29;7.18;;;6.55;;
9541;SDS011;4809;48.224;8.572;2022-07-23T14:12:55;7.75;;;6.97;;
9541;SDS011;4809;48.224;8.572;2022-07-23T14:15:23;7.47;;;6.78;;
9541;SDS011;4809;48.224;8.572;2022-07-23T14:17:49;7.40;;;6.80;;
9541;SDS011;4809;48.224;8.572;2022-07-23T14:20:15;7.55;;;6.85;;
9541;SDS011;4809;48.224;8.572;2022-07-23T14:22:41;8.02;;;7.07;;
9541;SDS011;4809;48.224;8.572;2022-07-23T14:25:07;8.07;;;7.38;;
9541;SDS011;4809;48.224;8.572;2022-07-23T14:27:34;8.30;;;7.50;;
9541;SDS011;4809;48.224;8.572;2022-07-23T14:30:00;7.40;;;6.80;;
9541;SDS011;4809;48.224;8.572;2022-07-23T14:32:26;7.70;;;7.00;;
9541;SDS011;4809;48.224;8.572;2022-07-23T14:34:52;7.78;;;7.07;;
9541;SDS011;4809;48.224;8.572;2022-07-23T14:37:18;8.02;;;7.32;;
9541;SDS011;4809;48.224;8.572;2022-07-23T14:39:44;7.63;;;6.93;;
9541;SDS011;4809;48.224;8.572;2022-07-23T14:42:10;7.90;;;7.30;;
9541;SDS011;4809;48.224;8.572;2022-07-23T14:44:37;7.63;;;6.93;;
9541;SDS011;4809;48.224;8.572;2022-07-23T14:47:03;7.45;;;6.75;;
9541;SDS011;4809;48.224;8.572;2022-07-23T14:49:30;7.80;;;7.07;;
9541;SDS011;4809;48.224;8.572;2022-07-23T14:51:57;7.93;;;7.25;;
9541;SDS011;4809;48.224;8.572;2022-07-23T14:54:24;7.65;;;6.85;;
9541;SDS011;4809;48.224;8.572;2022-07-23T14:56:54;7.50;;;6.80;;
9541;SDS011;4809;48.224;8.572;2022-07-23T14:59:20;7.90;;;7.20;;
9541;SDS011;4809;48.224;8.572;2022-07-23T15:01:46;7.70;;;7.00;;
9541;SDS011;4809;48.224;8.572;2022-07-23T15:04:12;7.47;;;6.88;;
9541;SDS011;4809;48.224;8.572;2022-07-23T15:06:38;7.43;;;6.72;;
9541;SDS011;4809;48.224;8.572;2022-07-23T15:09:04;7.65;;;6.95;;
9541;SDS011;4809;48.224;8.572;2022-07-23T15:11:30;6.85;;;6.25;;
9541;SDS011;4809;48.224;8.572;2022-07-23T15:13:59;8.23;;;7.43;;
9541;SDS011;4809;48.224;8.572;2022-07-23T15:16:28;7.63;;;6.80;;
9541;SDS011;4809;48.224;8.572;2022-07-23T15:18:54;7.35;;;6.65;;
9541;SDS011;4809;48.224;8.572;2022-07-23T15:21:20;7.68;;;6.90;;
9541;SDS011;4809;48.224;8.572;2022-07-23T15:23:46;7.10;;;6.50;;
9541;SDS011;4809;48.224;8.572;2022-07-23T15:26:11;7.63;;;6.93;;
9541;SDS011;4809;48.224;8.572;2022-07-23T15:28:39;8.25;;;7.45;;
9541;SDS011;4809;48.224;8.572;2022-07-23T15:31:05;9.65;;;8.75;;
9541;SDS011;4809;48.224;8.572;2022-07-23T15:33:31;7.70;;;7.00;;
9541;SDS011;4809;48.224;8.572;2022-07-23T15:35:57;7.82;;;7.10;;
9541;SDS011;4809;48.224;8.572;2022-07-23T15:38:24;7.45;;;6.78;;
9541;SDS011;4809;48.224;8.572;2022-07-23T15:40:51;7.90;;;7.20;;
9541;SDS011;4809;48.224;8.572;2022-07-23T15:43:21;7.70;;;7.00;;
9541;SDS011;4809;48.224;8.572;2022-07-23T15:45:48;7.68;;;6.97;;
9541;SDS011;4809;48.224;8.572;2022-07-23T15:48:14;8.20;;;7.43;;
9541;SDS011;4809;48.224;8.572;2022-07-23T15:50:40;8.00;;;7.40;;
9541;SDS011;4809;48.224;8.572;2022-07-23T15:53:06;7.55;;;6.85;;
9541;SDS011;4809;48.224;8.572;2022-07-23T15:55:32;8.18;;;7.47;;
9541;SDS011;4809;48.224;8.572;2022-07-23T15:57:58;8.00;;;7.30;;
9541;SDS011;4809;48.224;8.572;2022-07-23T16:00:23;7.63;;;6.93;;
9541;SDS011;4809;48.224;8.572;2022-07-23T16:02:49;7.97;;;7.18;;
9541;SDS011;4809;48.224;8.572;2022-07-23T16:05:15;7.70;;;7.00;;